sensor_id;sensor_type;location;lat;lon;timestamp;pressure;altitude;pressure_sealevel;temperature;humidity
56928;BME280;60850;52.502;13.426;2022-11-20T00:00:49;100742.25;;;2.26;100.00
56928;BME280;60850;52.502;13.426;2022-11-20T00:03:18;100743.16;;;2.31;100.00
56928;BME280;60850;52.502;13.426;2022-11-20T00:05:45;100748.34;;;2.23;100.00
56928;BME280;60850;52.502;13.426;2022-11-20T00:08:12;100741.34;;;2.22;100.00
56928;BME280;60850;52.502;13.426;2022-11-20T00:10:40;100731.69;;;2.19;100.00
56928;BME280;60850;52.502;13.426;2022-11-20T00:13:07;100740.41;;;2.12;100.00
56928;BME280;60850;52.502;13.426;2022-11-20T00:15:34;100740.41;;;2.14;100.00
56928;BME280;60850;52.502;13.426;2022-11-20T00:18:02;100737.78;;;2.12;100.00
56928;BME280;60850;52.502;13.426;2022-11-20T00:20:30;100745.66;;;2.12;100.00
56928;BME280;60850;52.502;13.426;2022-11-20T00:22:56;100739.53;;;2.12;100.00
56928;BME280;60850;52.502;13.426;2022-11-20T00:25:23;100735.16;;;2.15;100.00
56928;BME280;60850;52.502;13.426;2022-11-20T00:27:50;100736.91;;;2.16;100.00
56928;BME280;60850;52.502;13.426;2022-11-20T00:30:18;100739.53;;;2.16;100.00
56928;BME280;60850;52.502;13.426;2022-11-20T00:32:45;100744.78;;;2.13;100.00
56928;BME280;60850;52.502;13.426;2022-11-20T00:35:13;100742.16;;;2.12;100.00
56928;BME280;60850;52.502;13.426;2022-11-20T00:37:40;100745.63;;;2.11;100.00
56928;BME280;60850;52.502;13.426;2022-11-20T00:40:08;100743.91;;;2.13;100.00
56928;BME280;60850;52.502;13.426;2022-11-20T00:42:35;100745.66;;;2.12;100.00
56928;BME280;60850;52.502;13.426;2022-11-20T00:45:03;100741.22;;;2.08;100.00
56928;BME280;60850;52.502;13.426;2022-11-20T00:47:30;100745.56;;;2.03;100.00
56928;BME280;60850;52.502;13.426;2022-11-20T00:49:57;100742.06;;;2.04;100.00
56928;BME280;60850;52.502;13.426;2022-11-20T00:52:25;100737.72;;;2.05;100.00
56928;BME280;60850;52.502;13.426;2022-11-20T00:54:52;100735.06;;;2.03;100.00
56928;BME280;60850;52.502;13.426;2022-11-20T00:57:19;100735.97;;;2.05;100.00
56928;BME280;60850;52.502;13.426;2022-11-20T00:59:46;100744.75;;;2.09;100.00
56928;BME280;60850;52.502;13.426;2022-11-20T01:02:13;100743.84;;;2.07;100.00
56928;BME280;60850;52.502;13.426;2022-11-20T01:04:42;100743.84;;;2.05;100.00
56928;BME280;60850;52.502;13.426;2022-11-20T01:07:09;100736.78;;;2.01;100.00
56928;BME280;60850;52.502;13.426;2022-11-20T01:09:37;100742.94;;;2.02;100.00
56928;BME280;60850;52.502;13.426;2022-11-20T01:12:05;100740.31;;;2.02;100.00
56928;BME280;60850;52.502;13.426;2022-11-20T01:14:32;100742.97;;;2.05;100.00
56928;BME280;60850;52.502;13.426;2022-11-20T01:16:59;100751.75;;;2.10;100.00
56928;BME280;60850;52.502;13.426;2022-11-20T01:19:26;100740.34;;;2.09;100.00
56928;BME280;60850;52.502;13.426;2022-11-20T01:21:54;100737.78;;;2.12;100.00
56928;BME280;60850;52.502;13.426;2022-11-20T01:24:22;100736.91;;;2.12;100.00
56928;BME280;60850;52.502;13.426;2022-11-20T01:26:51;100729.84;;;2.11;100.00
56928;BME280;60850;52.502;13.426;2022-11-20T01:29:20;100729.00;;;2.13;100.00
56928;BME280;60850;52.502;13.426;2022-11-20T01:31:47;100728.13;;;2.16;100.00
56928;BME280;60850;52.502;13.426;2022-11-20T01:34:17;100727.22;;;2.11;100.00
56928;BME280;60850;52.502;13.426;2022-11-20T01:36:44;100723.72;;;2.09;100.00
56928;BME280;60850;52.502;13.426;2022-11-20T01:39:14;100735.16;;;2.12;100.00
56928;BME280;60850;52.502;13.426;2022-11-20T01:41:42;100725.50;;;2.16;100.00
56928;BME280;60850;52.502;13.426;2022-11-20T01:44:51;100716.78;;;2.18;100.00
56928;BME280;60850;52.502;13.426;2022-11-20T01:47:24;100722.06;;;2.22;100.00
56928;BME280;60850;52.502;13.426;2022-11-20T01:49:56;100728.19;;;2.24;100.00
56928;BME280;60850;52.502;13.426;2022-11-20T01:52:28;100723.81;;;2.23;100.00
56928;BME280;60850;52.502;13.426;2022-11-20T01:55:02;100717.69;;;2.24;100.00
56928;BME280;60850;52.502;13.426;2022-11-20T01:57:33;100722.00;;;2.17;100.00
56928;BME280;60850;52.502;13.426;2022-11-20T02:00:05;100723.75;;;2.18;100.00
56928;BME280;60850;52.502;13.426;2022-11-20T02:02:33;100715.03;;;2.19;100.00
56928;BME280;60850;52.502;13.426;2022-11-20T02:05:07;100720.31;;;2.24;100.00
56928;BME280;60850;52.502;13.426;2022-11-20T02:07:36;100720.19;;;2.10;100.00
56928;BME280;60850;52.502;13.426;2022-11-20T02:10:04;100715.75;;;2.03;100.00
56928;BME280;60850;52.502;13.426;2022-11-20T02:12:31;100707.00;;;1.98;100.00
56928;BME280;60850;52.502;13.426;2022-11-20T02:15:17;100712.19;;;1.95;100.00
56928;BME280;60850;52.502;13.426;2022-11-20T02:17:43;100704.31;;;1.91;100.00
56928;BME280;60850;52.502;13.426;2022-11-20T02:20:11;100707.81;;;1.92;100.00
56928;BME280;60850;52.502;13.426;2022-11-20T02:22:43;100706.94;;;1.93;100.00
56928;BME280;60850;52.502;13.426;2022-11-20T02:25:16;100710.41;;;1.89;100.00
56928;BME280;60850;52.502;13.426;2022-11-20T02:27:44;100702.50;;;1.84;100.00
56928;BME280;60850;52.502;13.426;2022-11-20T02:30:11;100706.00;;;1.85;100.00
56928;BME280;60850;52.502;13.426;2022-11-20T02:32:38;100704.19;;;1.79;100.00
56928;BME280;60850;52.502;13.426;2022-11-20T02:35:07;100702.44;;;1.80;100.00
56928;BME280;60850;52.502;13.426;2022-11-20T02:37:37;100698.06;;;1.79;100.00
56928;BME280;60850;52.502;13.426;2022-11-20T02:40:07;100698.94;;;1.78;100.00
56928;BME280;60850;52.502;13.426;2022-11-20T02:42:35;100698.88;;;1.75;100.00
56928;BME280;60850;52.502;13.426;2022-11-20T02:45:02;100699.72;;;1.69;100.00
56928;BME280;60850;52.502;13.426;2022-11-20T02:47:29;100707.63;;;1.72;100.00
56928;BME280;60850;52.502;13.426;2022-11-20T02:49:57;100700.63;;;1.71;100.00
56928;BME280;60850;52.502;13.426;2022-11-20T02:52:24;100706.75;;;1.73;100.00
56928;BME280;60850;52.502;13.426;2022-11-20T02:54:52;100705.06;;;1.77;100.00
56928;BME280;60850;52.502;13.426;2022-11-20T02:57:19;100696.31;;;1.79;100.00
56928;BME280;60850;52.502;13.426;2022-11-20T02:59:47;100696.31;;;1.81;100.00
56928;BME280;60850;52.502;13.426;2022-11-20T03:02:14;100692.81;;;1.79;100.00
56928;BME280;60850;52.502;13.426;2022-11-20T03:04:41;100695.44;;;1.77;100.00
56928;BME280;60850;52.502;13.426;2022-11-20T03:07:08;100698.00;;;1.76;100.00
56928;BME280;60850;52.502;13.426;2022-11-20T03:09:36;100703.25;;;1.70;100.00
56928;BME280;60850;52.502;13.426;2022-11-20T03:12:03;100698.00;;;1.70;100.00
56928;BME280;60850;52.502;13.426;2022-11-20T03:14:30;100690.06;;;1.63;100.00
56928;BME280;60850;52.502;13.426;2022-11-20T03:16:59;100690.88;;;1.59;100.00
56928;BME280;60850;52.502;13.426;2022-11-20T03:19:26;100690.00;;;1.57;100.00
56928;BME280;60850;52.502;13.426;2022-11-20T03:21:53;100682.06;;;1.54;100.00
56928;BME280;60850;52.502;13.426;2022-11-20T03:24:20;100682.03;;;1.51;100.00
56928;BME280;60850;52.502;13.426;2022-11-20T03:26:47;100682.00;;;1.47;100.00
56928;BME280;60850;52.502;13.426;2022-11-20T03:29:14;100681.13;;;1.48;100.00
56928;BME280;60850;52.502;13.426;2022-11-20T03:31:41;100684.66;;;1.48;100.00
56928;BME280;60850;52.502;13.426;2022-11-20T03:34:10;100678.53;;;1.51;100.00
56928;BME280;60850;52.502;13.426;2022-11-20T03:36:38;100682.03;;;1.51;100.00
56928;BME280;60850;52.502;13.426;2022-11-20T03:39:05;100684.69;;;1.54;100.00
56928;BME280;60850;52.502;13.426;2022-11-20T03:41:36;100682.09;;;1.57;100.00
56928;BME280;60850;52.502;13.426;2022-11-20T03:44:05;100672.53;;;1.62;100.00
56928;BME280;60850;52.502;13.426;2022-11-20T03:46:33;100675.19;;;1.69;100.00
56928;BME280;60850;52.502;13.426;2022-11-20T03:49:00;100668.16;;;1.69;100.00
56928;BME280;60850;52.502;13.426;2022-11-20T03:51:30;100677.81;;;1.67;100.00
56928;BME280;60850;52.502;13.426;2022-11-20T03:53:59;100681.31;;;1.69;100.00
56928;BME280;60850;52.502;13.426;2022-11-20T03:56:28;100670.84;;;1.74;100.00
56928;BME280;60850;52.502;13.426;2022-11-20T03:58:56;100677.81;;;1.69;100.00
56928;BME280;60850;52.502;13.426;2022-11-20T04:01:25;100677.84;;;1.70;100.00
56928;BME280;60850;52.502;13.426;2022-11-20T04:03:54;100676.09;;;1.71;100.00
56928;BME280;60850;52.502;13.426;2022-11-20T04:06:23;100667.34;;;1.73;100.00
56928;BME280;60850;52.502;13.426;2022-11-20T04:08:54;100672.59;;;1.73;100.00
56928;BME280;60850;52.502;13.426;2022-11-20T04:11:22;100664.72;;;1.72;100.00
56928;BME280;60850;52.502;13.426;2022-11-20T04:13:51;100669.91;;;1.67;100.00
56928;BME280;60850;52.502;13.426;2022-11-20T04:16:18;100664.59;;;1.59;100.00
56928;BME280;60850;52.502;13.426;2022-11-20T04:18:46;100662.84;;;1.55;100.00
56928;BME280;60850;52.502;13.426;2022-11-20T04:21:13;100667.16;;;1.49;100.00
56928;BME280;60850;52.502;13.426;2022-11-20T04:23:40;100673.16;;;1.37;100.00
56928;BME280;60850;52.502;13.426;2022-11-20T04:26:10;100664.28;;;1.24;100.00
56928;BME280;60850;52.502;13.426;2022-11-20T04:28:38;100672.97;;;1.19;100.00
56928;BME280;60850;52.502;13.426;2022-11-20T04:31:07;100674.72;;;1.20;100.00
56928;BME280;60850;52.502;13.426;2022-11-20T04:33:35;100680.00;;;1.23;100.00
56928;BME280;60850;52.502;13.426;2022-11-20T04:36:03;100674.78;;;1.24;100.00
56928;BME280;60850;52.502;13.426;2022-11-20T04:38:30;100679.22;;;1.30;100.00
56928;BME280;60850;52.502;13.426;2022-11-20T04:40:58;100671.31;;;1.28;100.00
56928;BME280;60850;52.502;13.426;2022-11-20T04:43:27;100666.09;;;1.30;100.00
56928;BME280;60850;52.502;13.426;2022-11-20T04:45:56;100659.97;;;1.31;100.00
56928;BME280;60850;52.502;13.426;2022-11-20T04:48:24;100660.75;;;1.24;100.00
56928;BME280;60850;52.502;13.426;2022-11-20T04:50:51;100656.31;;;1.18;100.00
56928;BME280;60850;52.502;13.426;2022-11-20T04:53:19;100657.19;;;1.16;100.00
56928;BME280;60850;52.502;13.426;2022-11-20T04:55:47;100656.31;;;1.14;100.00
56928;BME280;60850;52.502;13.426;2022-11-20T04:58:14;100662.38;;;1.09;100.00
56928;BME280;60850;52.502;13.426;2022-11-20T05:00:42;100655.38;;;1.08;100.00
56928;BME280;60850;52.502;13.426;2022-11-20T05:03:09;100655.34;;;1.07;100.00
56928;BME280;60850;52.502;13.426;2022-11-20T05:05:36;100659.75;;;1.08;100.00
56928;BME280;60850;52.502;13.426;2022-11-20T05:08:04;100649.25;;;1.09;100.00
56928;BME280;60850;52.502;13.426;2022-11-20T05:10:30;100648.38;;;1.10;100.00
56928;BME280;60850;52.502;13.426;2022-11-20T05:12:58;100632.59;;;1.07;100.00
56928;BME280;60850;52.502;13.426;2022-11-20T05:15:25;100632.63;;;1.10;100.00
56928;BME280;60850;52.502;13.426;2022-11-20T05:17:53;100640.50;;;1.12;100.00
56928;BME280;60850;52.502;13.426;2022-11-20T05:20:20;100629.19;;;1.15;100.00
56928;BME280;60850;52.502;13.426;2022-11-20T05:22:47;100626.56;;;1.18;100.00
56928;BME280;60850;52.502;13.426;2022-11-20T05:25:14;100629.19;;;1.15;100.00
56928;BME280;60850;52.502;13.426;2022-11-20T05:27:41;100627.44;;;1.20;100.00
56928;BME280;60850;52.502;13.426;2022-11-20T05:30:09;100633.63;;;1.20;100.00
56928;BME280;60850;52.502;13.426;2022-11-20T05:32:36;100629.25;;;1.24;100.00
56928;BME280;60850;52.502;13.426;2022-11-20T05:35:05;100630.19;;;1.29;100.00
56928;BME280;60850;52.502;13.426;2022-11-20T05:37:33;100632.81;;;1.32;100.00
56928;BME280;60850;52.502;13.426;2022-11-20T05:39:59;100630.22;;;1.33;100.00
56928;BME280;60850;52.502;13.426;2022-11-20T05:42:30;100631.13;;;1.37;100.00
56928;BME280;60850;52.502;13.426;2022-11-20T05:44:57;100627.63;;;1.38;100.00
56928;BME280;60850;52.502;13.426;2022-11-20T05:47:24;100625.88;;;1.40;100.00
56928;BME280;60850;52.502;13.426;2022-11-20T05:49:51;100623.25;;;1.38;100.00
56928;BME280;60850;52.502;13.426;2022-11-20T05:52:20;100619.81;;;1.41;100.00
56928;BME280;60850;52.502;13.426;2022-11-20T05:54:47;100625.06;;;1.43;100.00
56928;BME280;60850;52.502;13.426;2022-11-20T05:57:14;100625.06;;;1.46;100.00
56928;BME280;60850;52.502;13.426;2022-11-20T05:59:41;100624.25;;;1.48;100.00
56928;BME280;60850;52.502;13.426;2022-11-20T06:02:08;100616.31;;;1.45;100.00
56928;BME280;60850;52.502;13.426;2022-11-20T06:04:37;100621.56;;;1.47;100.00
56928;BME280;60850;52.502;13.426;2022-11-20T06:07:05;100622.44;;;1.47;100.00
56928;BME280;60850;52.502;13.426;2022-11-20T06:09:33;100618.06;;;1.42;100.00
56928;BME280;60850;52.502;13.426;2022-11-20T06:12:01;100613.63;;;1.41;100.00
56928;BME280;60850;52.502;13.426;2022-11-20T06:14:27;100618.94;;;1.42;100.00
56928;BME280;60850;52.502;13.426;2022-11-20T06:16:55;100616.25;;;1.41;100.00
56928;BME280;60850;52.502;13.426;2022-11-20T06:19:21;100612.78;;;1.42;100.00
56928;BME280;60850;52.502;13.426;2022-11-20T06:21:49;100614.50;;;1.40;100.00
56928;BME280;60850;52.502;13.426;2022-11-20T06:24:16;100613.69;;;1.44;100.00
56928;BME280;60850;52.502;13.426;2022-11-20T06:26:45;100614.50;;;1.40;100.00
56928;BME280;60850;52.502;13.426;2022-11-20T06:29:12;100618.81;;;1.33;100.00
56928;BME280;60850;52.502;13.426;2022-11-20T06:31:39;100612.69;;;1.31;100.00
56928;BME280;60850;52.502;13.426;2022-11-20T06:34:08;100614.44;;;1.30;100.00
56928;BME280;60850;52.502;13.426;2022-11-20T06:36:35;100622.31;;;1.32;100.00
56928;BME280;60850;52.502;13.426;2022-11-20T06:39:02;100621.44;;;1.33;100.00
56928;BME280;60850;52.502;13.426;2022-11-20T06:41:29;100623.19;;;1.32;100.00
56928;BME280;60850;52.502;13.426;2022-11-20T06:43:57;100613.56;;;1.33;100.00
56928;BME280;60850;52.502;13.426;2022-11-20T06:46:25;100611.81;;;1.29;100.00
56928;BME280;60850;52.502;13.426;2022-11-20T06:48:51;100609.13;;;1.26;100.00
56928;BME280;60850;52.502;13.426;2022-11-20T06:51:19;100613.56;;;1.28;100.00
56928;BME280;60850;52.502;13.426;2022-11-20T06:53:46;100614.44;;;1.29;100.00
56928;BME280;60850;52.502;13.426;2022-11-20T06:56:14;100611.88;;;1.36;100.00
56928;BME280;60850;52.502;13.426;2022-11-20T06:58:41;100608.31;;;1.33;100.00
56928;BME280;60850;52.502;13.426;2022-11-20T07:01:11;100609.19;;;1.32;100.00
56928;BME280;60850;52.502;13.426;2022-11-20T07:03:39;100606.50;;;1.26;100.00
56928;BME280;60850;52.502;13.426;2022-11-20T07:06:07;100604.81;;;1.31;100.00
56928;BME280;60850;52.502;13.426;2022-11-20T07:08:34;100604.81;;;1.31;100.00
56928;BME280;60850;52.502;13.426;2022-11-20T07:11:03;100604.84;;;1.34;100.00
56928;BME280;60850;52.502;13.426;2022-11-20T07:13:30;100603.13;;;1.36;100.00
56928;BME280;60850;52.502;13.426;2022-11-20T07:15:59;100597.81;;;1.30;100.00
56928;BME280;60850;52.502;13.426;2022-11-20T07:18:28;100602.22;;;1.35;100.00
56928;BME280;60850;52.502;13.426;2022-11-20T07:20:55;100608.38;;;1.39;100.00
56928;BME280;60850;52.502;13.426;2022-11-20T07:23:22;100610.19;;;1.43;100.00
56928;BME280;60850;52.502;13.426;2022-11-20T07:25:49;100607.56;;;1.43;100.00
56928;BME280;60850;52.502;13.426;2022-11-20T07:28:16;100610.19;;;1.46;100.00
56928;BME280;60850;52.502;13.426;2022-11-20T07:30:49;100611.00;;;1.39;100.00
56928;BME280;60850;52.502;13.426;2022-11-20T07:33:16;100613.63;;;1.37;100.00
56928;BME280;60850;52.502;13.426;2022-11-20T07:35:45;100612.75;;;1.38;100.00
56928;BME280;60850;52.502;13.426;2022-11-20T07:38:11;100603.19;;;1.45;100.00
56928;BME280;60850;52.502;13.426;2022-11-20T07:40:39;100606.72;;;1.49;100.00
56928;BME280;60850;52.502;13.426;2022-11-20T07:43:05;100603.22;;;1.51;100.00
56928;BME280;60850;52.502;13.426;2022-11-20T07:45:33;100598.84;;;1.52;100.00
56928;BME280;60850;52.502;13.426;2022-11-20T07:48:00;100602.38;;;1.52;100.00
56928;BME280;60850;52.502;13.426;2022-11-20T07:50:27;100597.03;;;1.42;100.00
56928;BME280;60850;52.502;13.426;2022-11-20T07:53:02;100597.06;;;1.45;100.00
56928;BME280;60850;52.502;13.426;2022-11-20T07:55:29;100594.44;;;1.46;100.00
56928;BME280;60850;52.502;13.426;2022-11-20T07:57:57;100595.34;;;1.51;100.00
56928;BME280;60850;52.502;13.426;2022-11-20T08:00:25;100591.03;;;1.59;100.00
56928;BME280;60850;52.502;13.426;2022-11-20T08:02:52;100592.88;;;1.70;100.00
56928;BME280;60850;52.502;13.426;2022-11-20T08:05:19;100592.09;;;1.86;100.00
56928;BME280;60850;52.502;13.426;2022-11-20T08:07:46;100597.31;;;1.83;100.00
56928;BME280;60850;52.502;13.426;2022-11-20T08:10:15;100591.22;;;1.87;100.00
56928;BME280;60850;52.502;13.426;2022-11-20T08:12:45;100596.50;;;1.88;100.00
56928;BME280;60850;52.502;13.426;2022-11-20T08:15:31;100583.41;;;1.98;100.00
56928;BME280;60850;52.502;13.426;2022-11-20T08:18:02;100587.00;;;2.12;100.00
56928;BME280;60850;52.502;13.426;2022-11-20T08:20:30;100589.63;;;2.18;100.00
56928;BME280;60850;52.502;13.426;2022-11-20T08:23:00;100584.41;;;2.24;100.00
56928;BME280;60850;52.502;13.426;2022-11-20T08:25:29;100587.97;;;2.34;100.00
56928;BME280;60850;52.502;13.426;2022-11-20T08:27:57;100579.22;;;2.35;100.00
56928;BME280;60850;52.502;13.426;2022-11-20T08:30:25;100581.84;;;2.39;100.00
56928;BME280;60850;52.502;13.426;2022-11-20T08:32:53;100588.03;;;2.51;100.00
56928;BME280;60850;52.502;13.426;2022-11-20T08:35:21;100578.38;;;2.53;100.00
56928;BME280;60850;52.502;13.426;2022-11-20T08:37:48;100578.41;;;2.54;100.00
56928;BME280;60850;52.502;13.426;2022-11-20T08:40:15;100578.41;;;2.57;100.00
56928;BME280;60850;52.502;13.426;2022-11-20T08:42:47;100580.19;;;2.57;100.00
56928;BME280;60850;52.502;13.426;2022-11-20T08:45:15;100586.28;;;2.50;100.00
56928;BME280;60850;52.502;13.426;2022-11-20T08:47:43;100576.66;;;2.55;100.00
56928;BME280;60850;52.502;13.426;2022-11-20T08:50:11;100574.88;;;2.49;100.00
56928;BME280;60850;52.502;13.426;2022-11-20T08:52:38;100573.16;;;2.57;100.00
56928;BME280;60850;52.502;13.426;2022-11-20T08:55:07;100562.63;;;2.57;100.00
56928;BME280;60850;52.502;13.426;2022-11-20T08:57:34;100573.16;;;2.59;100.00
56928;BME280;60850;52.502;13.426;2022-11-20T09:00:05;100560.91;;;2.64;100.00
56928;BME280;60850;52.502;13.426;2022-11-20T09:02:32;100558.25;;;2.59;100.00
56928;BME280;60850;52.502;13.426;2022-11-20T09:04:59;100571.41;;;2.64;100.00
56928;BME280;60850;52.502;13.426;2022-11-20T09:07:28;100567.91;;;2.65;100.00
56928;BME280;60850;52.502;13.426;2022-11-20T09:09:55;100582.84;;;2.61;100.00
56928;BME280;60850;52.502;13.426;2022-11-20T09:12:22;100567.88;;;2.60;100.00
56928;BME280;60850;52.502;13.426;2022-11-20T09:14:49;100580.19;;;2.61;100.00
56928;BME280;60850;52.502;13.426;2022-11-20T09:17:17;100577.56;;;2.67;100.00
56928;BME280;60850;52.502;13.426;2022-11-20T09:19:46;100588.97;;;2.65;100.00
56928;BME280;60850;52.502;13.426;2022-11-20T09:22:13;100581.97;;;2.61;100.00
56928;BME280;60850;52.502;13.426;2022-11-20T09:24:40;100583.69;;;2.54;100.00
56928;BME280;60850;52.502;13.426;2022-11-20T09:27:08;100583.63;;;2.45;100.00
56928;BME280;60850;52.502;13.426;2022-11-20T09:29:35;100591.50;;;2.39;100.00
56928;BME280;60850;52.502;13.426;2022-11-20T09:32:02;100591.47;;;2.30;100.00
56928;BME280;60850;52.502;13.426;2022-11-20T09:34:30;100591.50;;;2.36;100.00
56928;BME280;60850;52.502;13.426;2022-11-20T09:36:57;100582.72;;;2.37;100.00
56928;BME280;60850;52.502;13.426;2022-11-20T09:39:24;100581.00;;;2.42;100.00
56928;BME280;60850;52.502;13.426;2022-11-20T09:45:19;100582.78;;;2.49;100.00
56928;BME280;60850;52.502;13.426;2022-11-20T09:47:56;100573.16;;;2.54;100.00
56928;BME280;60850;52.502;13.426;2022-11-20T09:50:32;100566.13;;;2.58;100.00
56928;BME280;60850;52.502;13.426;2022-11-20T09:53:12;100563.53;;;2.65;100.00
56928;BME280;60850;52.502;13.426;2022-11-20T09:55:40;100569.66;;;2.66;100.00
56928;BME280;60850;52.502;13.426;2022-11-20T09:58:14;100571.44;;;2.70;100.00
56928;BME280;60850;52.502;13.426;2022-11-20T10:00:43;100554.78;;;2.72;100.00
56928;BME280;60850;52.502;13.426;2022-11-20T10:03:14;100570.56;;;2.74;100.00
56928;BME280;60850;52.502;13.426;2022-11-20T10:05:46;100564.44;;;2.75;100.00
56928;BME280;60850;52.502;13.426;2022-11-20T10:08:17;100559.19;;;2.78;100.00
56928;BME280;60850;52.502;13.426;2022-11-20T10:10:47;100556.56;;;2.83;100.00
56928;BME280;60850;52.502;13.426;2022-11-20T10:13:34;100562.69;;;2.86;100.00
56928;BME280;60850;52.502;13.426;2022-11-20T10:16:19;100560.06;;;2.94;100.00
56928;BME280;60850;52.502;13.426;2022-11-20T10:19:01;100551.31;;;2.99;100.00
56928;BME280;60850;52.502;13.426;2022-11-20T10:21:40;100553.97;;;3.06;100.00
56928;BME280;60850;52.502;13.426;2022-11-20T10:24:38;100545.19;;;3.05;100.00
56928;BME280;60850;52.502;13.426;2022-11-20T10:27:37;100549.53;;;2.95;100.00
56928;BME280;60850;52.502;13.426;2022-11-20T10:30:09;100543.38;;;2.87;100.00
56928;BME280;60850;52.502;13.426;2022-11-20T10:32:40;100552.16;;;2.75;100.00
56928;BME280;60850;52.502;13.426;2022-11-20T10:35:19;100545.13;;;2.68;100.00
56928;BME280;60850;52.502;13.426;2022-11-20T10:37:51;100542.50;;;2.68;100.00
56928;BME280;60850;52.502;13.426;2022-11-20T10:40:23;100531.94;;;2.74;100.00
56928;BME280;60850;52.502;13.426;2022-11-20T10:42:56;100529.34;;;2.76;100.00
56928;BME280;60850;52.502;13.426;2022-11-20T10:45:35;100525.84;;;2.85;100.00
56928;BME280;60850;52.502;13.426;2022-11-20T10:48:14;100522.34;;;2.98;100.00
56928;BME280;60850;52.502;13.426;2022-11-20T10:50:52;100525.84;;;3.09;100.00
56928;BME280;60850;52.502;13.426;2022-11-20T10:53:45;100524.97;;;3.16;100.00
56928;BME280;60850;52.502;13.426;2022-11-20T10:56:19;100512.69;;;3.21;100.00
56928;BME280;60850;52.502;13.426;2022-11-20T10:58:57;100512.69;;;3.27;100.00
56928;BME280;60850;52.502;13.426;2022-11-20T11:01:27;100511.81;;;3.28;100.00
56928;BME280;60850;52.502;13.426;2022-11-20T11:03:55;100514.47;;;3.25;100.00
56928;BME280;60850;52.502;13.426;2022-11-20T11:06:29;100515.34;;;3.20;100.00
56928;BME280;60850;52.502;13.426;2022-11-20T11:09:03;100528.50;;;3.21;100.00
56928;BME280;60850;52.502;13.426;2022-11-20T11:11:33;100512.69;;;3.23;100.00
56928;BME280;60850;52.502;13.426;2022-11-20T11:14:06;100518.84;;;3.39;100.00
56928;BME280;60850;52.502;13.426;2022-11-20T11:16:33;100522.34;;;3.54;100.00
56928;BME280;60850;52.502;13.426;2022-11-20T11:19:04;100523.16;;;3.66;100.00
56928;BME280;60850;52.502;13.426;2022-11-20T11:21:31;100520.53;;;3.82;100.00
56928;BME280;60850;52.502;13.426;2022-11-20T11:24:01;100517.84;;;3.95;100.00
56928;BME280;60850;52.502;13.426;2022-11-20T11:26:29;100512.53;;;4.04;100.00
56928;BME280;60850;52.502;13.426;2022-11-20T11:28:57;100507.22;;;4.13;100.00
56928;BME280;60850;52.502;13.426;2022-11-20T11:31:25;100511.66;;;4.05;100.00
56928;BME280;60850;52.502;13.426;2022-11-20T11:34:03;100516.06;;;4.09;100.00
56928;BME280;60850;52.502;13.426;2022-11-20T11:36:32;100509.88;;;4.05;100.00
56928;BME280;60850;52.502;13.426;2022-11-20T11:39:02;100497.59;;;4.01;100.00
56928;BME280;60850;52.502;13.426;2022-11-20T11:41:32;100491.44;;;4.01;100.00
56928;BME280;60850;52.502;13.426;2022-11-20T11:44:15;100498.47;;;4.05;100.00
56928;BME280;60850;52.502;13.426;2022-11-20T11:47:00;100490.56;;;3.99;100.00
56928;BME280;60850;52.502;13.426;2022-11-20T11:49:28;100501.16;;;3.96;100.00
56928;BME280;60850;52.502;13.426;2022-11-20T11:52:02;100492.34;;;3.88;100.00
56928;BME280;60850;52.502;13.426;2022-11-20T11:54:36;100493.28;;;3.77;100.00
56928;BME280;60850;52.502;13.426;2022-11-20T11:57:10;100500.34;;;3.69;100.00
56928;BME280;60850;52.502;13.426;2022-11-20T11:59:47;100493.31;;;3.62;100.00
56928;BME280;60850;52.502;13.426;2022-11-20T12:02:29;100488.97;;;3.53;100.00
56928;BME280;60850;52.502;13.426;2022-11-20T12:04:59;100485.44;;;3.54;100.00
56928;BME280;60850;52.502;13.426;2022-11-20T12:07:38;100487.19;;;3.49;100.00
56928;BME280;60850;52.502;13.426;2022-11-20T12:10:15;100492.47;;;3.60;100.00
56928;BME280;60850;52.502;13.426;2022-11-20T12:12:45;100486.28;;;3.64;100.00
56928;BME280;60850;52.502;13.426;2022-11-20T12:15:25;100480.16;;;3.67;100.00
56928;BME280;60850;52.502;13.426;2022-11-20T12:17:52;100488.06;;;3.67;100.00
56928;BME280;60850;52.502;13.426;2022-11-20T12:20:22;100488.03;;;3.68;100.00
56928;BME280;60850;52.502;13.426;2022-11-20T12:22:55;100473.09;;;3.70;100.00
56928;BME280;60850;52.502;13.426;2022-11-20T12:25:26;100474.81;;;3.79;100.00
56928;BME280;60850;52.502;13.426;2022-11-20T12:28:18;100469.50;;;3.90;100.00
56928;BME280;60850;52.502;13.426;2022-11-20T12:31:02;100469.50;;;3.93;100.00
56928;BME280;60850;52.502;13.426;2022-11-20T12:33:49;100468.59;;;3.97;100.00
56928;BME280;60850;52.502;13.426;2022-11-20T12:36:27;100472.13;;;4.02;100.00
56928;BME280;60850;52.502;13.426;2022-11-20T12:42:17;100469.47;;;4.03;100.00
56928;BME280;60850;52.502;13.426;2022-11-20T12:45:14;100471.25;;;3.95;100.00
56928;BME280;60850;52.502;13.426;2022-11-20T12:48:12;100455.47;;;3.83;100.00
56928;BME280;60850;52.502;13.426;2022-11-20T12:50:50;100452.84;;;3.72;100.00
56928;BME280;60850;52.502;13.426;2022-11-20T12:53:27;100445.00;;;3.62;100.00
56928;BME280;60850;52.502;13.426;2022-11-20T12:56:01;100445.94;;;3.47;100.00
56928;BME280;60850;52.502;13.426;2022-11-20T12:58:39;100448.59;;;3.25;100.00
56928;BME280;60850;52.502;13.426;2022-11-20T13:01:23;100443.34;;;3.09;100.00